createdAt,value
2023-02-03T00:00:26.280Z,42.94
2023-02-03T00:01:26.005Z,45.28
2023-02-03T00:02:25.997Z,51.88
2023-02-03T00:03:26.073Z,49.13
2023-02-03T00:04:25.978Z,55.30
2023-02-03T00:05:25.978Z,45.41
2023-02-03T00:06:25.962Z,55.26
2023-02-03T00:07:25.959Z,47.08
2023-02-03T00:08:25.974Z,54.43
2023-02-03T00:09:25.959Z,53.71
2023-02-03T00:10:26.255Z,47.34
2023-02-03T00:11:25.927Z,58.08
2023-02-03T00:12:25.916Z,45.02
2023-02-03T00:13:25.946Z,47.31
2023-02-03T00:14:25.899Z,54.49
2023-02-03T00:15:25.892Z,41.80
2023-02-03T00:16:25.883Z,43.55
2023-02-03T00:17:25.880Z,53.40
2023-02-03T00:18:25.898Z,52.69
2023-02-03T00:19:25.862Z,48.49
2023-02-03T00:20:26.211Z,55.16
2023-02-03T00:21:25.843Z,47.74
2023-02-03T00:22:25.835Z,46.05
2023-02-03T00:23:25.864Z,59.67
2023-02-03T00:24:25.815Z,49.08
2023-02-03T00:25:25.815Z,40.82
2023-02-03T00:26:25.808Z,45.24
2023-02-03T00:27:25.798Z,44.94
2023-02-03T00:28:25.814Z,44.39
2023-02-03T00:29:25.833Z,41.63
2023-02-03T00:30:25.982Z,47.87
2023-02-03T00:31:25.892Z,50.43
2023-02-03T00:32:25.882Z,49.45
2023-02-03T00:33:25.784Z,49.22
2023-02-03T00:34:25.747Z,49.03
2023-02-03T00:35:25.742Z,49.72
2023-02-03T00:36:25.804Z,54.00
2023-02-03T00:37:25.726Z,49.79
2023-02-03T00:38:25.738Z,50.87
2023-02-03T00:39:25.708Z,41.33
2023-02-03T00:40:26.030Z,49.71
2023-02-03T00:41:25.693Z,41.91
2023-02-03T00:42:25.695Z,39.01
2023-02-03T00:43:25.706Z,40.00
2023-02-03T00:44:25.673Z,46.96
2023-02-03T00:45:25.670Z,46.25
2023-02-03T00:46:25.666Z,45.81
2023-02-03T00:47:25.652Z,41.82
2023-02-03T00:48:25.669Z,39.61
2023-02-03T00:49:25.637Z,42.68
2023-02-03T00:50:25.903Z,46.81
2023-02-03T00:51:25.618Z,51.00
2023-02-03T00:52:25.630Z,40.77
2023-02-03T00:53:25.627Z,54.97
2023-02-03T00:54:25.593Z,46.63
2023-02-03T00:55:25.592Z,40.56
2023-02-03T00:56:25.588Z,46.39
2023-02-03T00:57:25.573Z,46.38
2023-02-03T00:58:25.588Z,43.20
2023-02-03T00:59:25.555Z,50.58
2023-02-03T01:00:25.759Z,42.98
2023-02-03T01:01:25.582Z,42.20
2023-02-03T01:02:25.603Z,50.69
2023-02-03T01:03:25.795Z,46.00
2023-02-03T01:04:25.534Z,46.22
2023-02-03T01:05:25.510Z,45.99
2023-02-03T01:06:25.505Z,39.47
2023-02-03T01:07:25.497Z,39.29
2023-02-03T01:08:25.509Z,41.70
2023-02-03T01:09:25.487Z,55.98
2023-02-03T01:10:25.786Z,49.50
2023-02-03T01:11:25.471Z,41.29
2023-02-03T01:12:25.460Z,41.78
2023-02-03T01:13:25.474Z,42.37
2023-02-03T01:14:25.453Z,45.14
2023-02-03T01:15:25.439Z,47.95
2023-02-03T01:16:27.647Z,56.59
2023-02-03T01:17:25.418Z,49.97
2023-02-03T01:18:25.444Z,46.48
2023-02-03T01:19:25.406Z,43.22
2023-02-03T01:20:25.950Z,53.33
2023-02-03T01:21:25.390Z,44.82
2023-02-03T01:22:25.385Z,46.66
2023-02-03T01:23:25.389Z,49.49
2023-02-03T01:24:25.393Z,46.80
2023-02-03T01:25:25.433Z,49.49
2023-02-03T01:26:25.354Z,51.25
2023-02-03T01:27:25.343Z,45.14
2023-02-03T01:28:25.336Z,41.76
2023-02-03T01:29:25.357Z,49.21
2023-02-03T01:30:25.720Z,55.53
2023-02-03T01:31:25.411Z,49.48
2023-02-03T01:32:25.309Z,44.58
2023-02-03T01:33:25.289Z,47.66
2023-02-03T01:34:25.321Z,42.86
2023-02-03T01:35:25.283Z,45.69
2023-02-03T01:36:25.271Z,48.79
2023-02-03T01:37:25.259Z,46.33
2023-02-03T01:38:25.259Z,51.51
2023-02-03T01:39:25.270Z,53.66
2023-02-03T01:40:25.796Z,53.74
2023-02-03T01:41:25.235Z,48.21
2023-02-03T01:42:25.249Z,47.28
2023-02-03T01:43:25.222Z,50.87
2023-02-03T01:44:25.236Z,40.60
2023-02-03T01:45:25.201Z,43.11
2023-02-03T01:46:25.249Z,49.00
2023-02-03T01:47:25.188Z,52.99
2023-02-03T01:48:25.180Z,43.50
2023-02-03T01:49:25.200Z,51.93
2023-02-03T01:50:25.444Z,51.17
2023-02-03T01:51:25.157Z,46.16
2023-02-03T01:52:25.162Z,52.39
2023-02-03T01:53:25.136Z,44.11
2023-02-03T01:54:25.188Z,47.10
2023-02-03T01:55:25.124Z,50.99
2023-02-03T01:56:25.117Z,42.80
2023-02-03T01:57:25.118Z,50.82
2023-02-03T01:58:25.107Z,47.77
2023-02-03T01:59:25.127Z,53.27
2023-02-03T02:00:25.431Z,51.58
2023-02-03T02:01:25.141Z,44.01
2023-02-03T02:02:25.101Z,42.54
2023-02-03T02:03:25.063Z,56.17
2023-02-03T02:04:25.082Z,44.75
2023-02-03T02:05:25.049Z,50.50
2023-02-03T02:06:25.041Z,49.87
2023-02-03T02:07:25.035Z,50.03
2023-02-03T02:08:25.022Z,50.56
2023-02-03T02:09:25.040Z,52.53
2023-02-03T02:10:25.328Z,54.03
2023-02-03T02:11:25.001Z,45.34
2023-02-03T02:12:25.000Z,41.61
2023-02-03T02:13:24.995Z,52.85
2023-02-03T02:14:25.011Z,53.02
2023-02-03T02:15:24.979Z,43.46
2023-02-03T02:16:24.962Z,49.60
2023-02-03T02:17:24.961Z,49.20
2023-02-03T02:18:24.969Z,50.10
2023-02-03T02:19:24.966Z,44.59
2023-02-03T02:20:25.242Z,45.55
2023-02-03T02:21:24.932Z,41.24
2023-02-03T02:22:24.928Z,46.16
2023-02-03T02:23:24.917Z,49.83
2023-02-03T02:24:24.932Z,45.07
2023-02-03T02:25:24.908Z,55.27
2023-02-03T02:26:24.885Z,46.09
2023-02-03T02:27:24.872Z,45.14
2023-02-03T02:28:24.878Z,40.71
2023-02-03T02:29:25.014Z,45.05
2023-02-03T02:30:25.233Z,41.35
2023-02-03T02:31:24.915Z,51.57
2023-02-03T02:32:24.852Z,47.96
2023-02-03T02:33:24.834Z,41.54
2023-02-03T02:34:24.870Z,46.67
2023-02-03T02:35:24.826Z,45.96
2023-02-03T02:36:24.827Z,51.10
2023-02-03T02:37:24.801Z,54.69
2023-02-03T02:38:24.793Z,40.20
2023-02-03T02:39:24.782Z,43.16
2023-02-03T02:40:25.507Z,55.87
2023-02-03T02:41:24.769Z,41.78
2023-02-03T02:42:24.770Z,38.93
2023-02-03T02:43:24.763Z,39.92
2023-02-03T02:44:24.753Z,40.28
2023-02-03T02:45:24.767Z,41.00
2023-02-03T02:46:24.768Z,44.37
2023-02-03T02:47:24.756Z,39.08
2023-02-03T02:48:24.782Z,40.27
2023-02-03T02:49:24.750Z,49.72
2023-02-03T02:50:25.310Z,56.91
2023-02-03T02:51:24.698Z,41.64
2023-02-03T02:52:24.699Z,40.58
2023-02-03T02:53:24.682Z,46.28
2023-02-03T02:54:24.676Z,47.02
2023-02-03T02:55:24.805Z,62.83
2023-02-03T02:56:24.657Z,50.05
2023-02-03T02:57:24.653Z,46.00
2023-02-03T02:58:24.647Z,56.55
2023-02-03T02:59:24.668Z,46.49
2023-02-03T03:00:26.079Z,43.73
2023-02-03T03:01:24.634Z,46.65
2023-02-03T03:02:24.615Z,39.48
2023-02-03T03:03:24.636Z,47.89
2023-02-03T03:04:24.628Z,50.37
2023-02-03T03:05:24.627Z,54.28
2023-02-03T03:06:24.588Z,53.70
2023-02-03T03:07:24.582Z,48.89
2023-02-03T03:08:24.572Z,40.41
2023-02-03T03:09:24.562Z,44.49
2023-02-03T03:10:25.019Z,42.18
2023-02-03T03:11:24.543Z,56.93
2023-02-03T03:12:24.546Z,43.62
2023-02-03T03:13:24.527Z,43.63
2023-02-03T03:14:24.521Z,39.86
2023-02-03T03:15:24.538Z,41.64
2023-02-03T03:16:24.605Z,51.08
2023-02-03T03:17:24.502Z,46.55
2023-02-03T03:18:24.481Z,51.23
2023-02-03T03:19:25.481Z,41.05
2023-02-03T03:20:24.779Z,47.95
2023-02-03T03:21:24.472Z,50.75
2023-02-03T03:22:24.463Z,49.33
2023-02-03T03:23:24.455Z,48.07
2023-02-03T03:24:24.444Z,48.53
2023-02-03T03:25:24.457Z,48.25
2023-02-03T03:26:24.426Z,58.20
2023-02-03T03:27:24.419Z,51.93
2023-02-03T03:28:24.415Z,49.01
2023-02-03T03:29:24.413Z,51.45
2023-02-03T03:30:24.556Z,52.68
2023-02-03T03:31:24.500Z,49.54
2023-02-03T03:32:24.384Z,50.65
2023-02-03T03:33:24.384Z,54.51
2023-02-03T03:34:24.369Z,52.94
2023-02-03T03:35:24.359Z,50.92
2023-02-03T03:36:24.385Z,52.80
2023-02-03T03:37:24.356Z,58.93
2023-02-03T03:38:24.344Z,49.34
2023-02-03T03:39:24.333Z,47.16
2023-02-03T03:40:24.649Z,48.61
2023-02-03T03:41:24.344Z,40.11
2023-02-03T03:42:24.308Z,51.28
2023-02-03T03:43:24.307Z,53.49
2023-02-03T03:44:24.297Z,52.26
2023-02-03T03:45:24.281Z,44.48
2023-02-03T03:46:24.328Z,54.76
2023-02-03T03:47:24.269Z,53.09
2023-02-03T03:48:24.264Z,40.93
2023-02-03T03:49:24.255Z,52.03
2023-02-03T03:50:24.325Z,48.31
2023-02-03T03:51:24.263Z,47.64
2023-02-03T03:52:24.245Z,49.24
2023-02-03T03:53:24.226Z,51.49
2023-02-03T03:54:24.214Z,46.48
2023-02-03T03:55:24.208Z,54.98
2023-02-03T03:56:24.230Z,48.04
2023-02-03T03:57:24.205Z,53.35
2023-02-03T03:58:24.188Z,51.22
2023-02-03T03:59:24.177Z,46.73
2023-02-03T04:00:24.205Z,52.18
2023-02-03T04:01:24.320Z,51.47
2023-02-03T04:02:24.235Z,47.02
2023-02-03T04:03:24.182Z,49.60
2023-02-03T04:04:24.139Z,56.72
2023-02-03T04:05:24.131Z,55.55
2023-02-03T04:06:24.149Z,51.01
2023-02-03T04:07:24.117Z,48.22
2023-02-03T04:08:24.101Z,49.57
2023-02-03T04:09:25.101Z,53.19
2023-02-03T04:10:24.238Z,55.08
2023-02-03T04:11:24.111Z,54.85
2023-02-03T04:12:24.091Z,53.05
2023-02-03T04:13:24.071Z,57.87
2023-02-03T04:14:24.069Z,56.61
2023-02-03T04:15:24.060Z,54.25
2023-02-03T04:16:24.119Z,53.93
2023-02-03T04:17:24.037Z,55.53
2023-02-03T04:18:24.037Z,54.82
2023-02-03T04:19:24.038Z,57.08
2023-02-03T04:20:24.023Z,54.09
2023-02-03T04:21:24.045Z,57.58
2023-02-03T04:22:24.006Z,56.03
2023-02-03T04:23:24.004Z,55.27
2023-02-03T04:24:23.985Z,51.66
2023-02-03T04:25:23.987Z,54.66
2023-02-03T04:26:23.997Z,54.14
2023-02-03T04:27:23.966Z,50.46
2023-02-03T04:28:23.952Z,55.65
2023-02-03T04:29:23.942Z,53.59
2023-02-03T04:30:23.952Z,57.69
2023-02-03T04:31:24.026Z,57.02
2023-02-03T04:32:23.946Z,59.77
2023-02-03T04:33:23.915Z,61.31
2023-02-03T04:34:23.901Z,54.64
2023-02-03T04:35:23.902Z,56.10
2023-02-03T04:36:23.892Z,55.38
2023-02-03T04:37:23.909Z,61.09
2023-02-03T04:38:23.878Z,56.26
2023-02-03T04:39:23.870Z,54.73
2023-02-03T04:40:23.859Z,60.15
2023-02-03T04:41:23.848Z,51.91
2023-02-03T04:42:23.873Z,51.96
2023-02-03T04:43:23.845Z,57.66
2023-02-03T04:44:23.827Z,52.99
2023-02-03T04:45:23.937Z,57.83
2023-02-03T04:46:23.821Z,61.85
2023-02-03T04:47:23.837Z,58.45
2023-02-03T04:48:23.791Z,58.11
2023-02-03T04:49:23.794Z,60.81
2023-02-03T04:50:23.794Z,58.37
2023-02-03T04:51:23.777Z,56.25
2023-02-03T04:52:23.788Z,56.73
2023-02-03T04:53:23.762Z,57.71
2023-02-03T04:54:23.748Z,53.19
2023-02-03T04:55:23.747Z,56.62
2023-02-03T04:56:23.758Z,59.02
2023-02-03T04:57:23.761Z,53.79
2023-02-03T04:58:23.721Z,55.91
2023-02-03T04:59:23.711Z,55.54
2023-02-03T05:00:23.707Z,55.71
2023-02-03T05:01:23.748Z,56.56
2023-02-03T05:02:23.718Z,54.30
2023-02-03T05:03:26.144Z,55.75
2023-02-03T05:04:24.680Z,51.49
2023-02-03T05:05:23.668Z,55.14
2023-02-03T05:06:23.659Z,58.52
2023-02-03T05:07:23.682Z,57.64
2023-02-03T05:08:23.648Z,61.12
2023-02-03T05:09:23.645Z,52.87
2023-02-03T05:10:23.632Z,58.74
2023-02-03T05:11:23.626Z,60.73
2023-02-03T05:12:23.648Z,56.38
2023-02-03T05:13:23.616Z,58.31
2023-02-03T05:14:23.601Z,55.04
2023-02-03T05:15:23.600Z,55.26
2023-02-03T05:16:23.636Z,56.08
2023-02-03T05:17:23.604Z,57.27
2023-02-03T05:18:23.573Z,56.35
2023-02-03T05:19:23.583Z,57.65
2023-02-03T05:20:23.558Z,58.09
2023-02-03T05:21:23.551Z,59.98
2023-02-03T05:22:23.571Z,53.71
2023-02-03T05:23:23.547Z,56.98
2023-02-03T05:24:23.528Z,57.36
2023-02-03T05:25:23.520Z,54.05
2023-02-03T05:26:23.515Z,58.28
2023-02-03T05:27:23.533Z,57.08
2023-02-03T05:28:23.500Z,58.40
2023-02-03T05:29:23.494Z,58.58
2023-02-03T05:30:23.486Z,58.93
2023-02-03T05:31:23.602Z,57.91
2023-02-03T05:32:23.491Z,62.85
2023-02-03T05:33:23.473Z,59.48
2023-02-03T05:34:23.451Z,54.99
2023-02-03T05:35:23.441Z,58.00
2023-02-03T05:36:23.435Z,56.78
2023-02-03T05:37:23.443Z,59.41
2023-02-03T05:38:23.417Z,59.06
2023-02-03T05:39:23.397Z,58.82
2023-02-03T05:40:23.404Z,58.28
2023-02-03T05:41:23.411Z,60.85
2023-02-03T05:42:23.404Z,59.08
2023-02-03T05:43:23.376Z,56.48
2023-02-03T05:44:23.365Z,57.06
2023-02-03T05:45:23.349Z,55.55
2023-02-03T05:46:23.345Z,56.51
2023-02-03T05:47:23.365Z,60.06
2023-02-03T05:48:23.331Z,61.49
2023-02-03T05:49:23.423Z,59.10
2023-02-03T05:50:23.329Z,58.78
2023-02-03T05:51:23.310Z,58.44
2023-02-03T05:52:23.325Z,58.60
2023-02-03T05:53:23.291Z,57.12
2023-02-03T05:54:23.282Z,57.32
2023-02-03T05:55:23.281Z,58.99
2023-02-03T05:56:23.290Z,54.92
2023-02-03T05:57:23.286Z,58.71
2023-02-03T05:58:23.248Z,59.48
2023-02-03T05:59:24.247Z,60.08
2023-02-03T06:00:23.240Z,55.11
2023-02-03T06:01:23.230Z,59.13
2023-02-03T06:02:23.248Z,57.84
2023-02-03T06:03:23.263Z,56.91
2023-02-03T06:04:23.242Z,57.40
2023-02-03T06:05:23.210Z,61.28
2023-02-03T06:06:24.194Z,57.93
2023-02-03T06:07:23.209Z,57.15
2023-02-03T06:08:23.196Z,56.15
2023-02-03T06:09:23.177Z,58.70
2023-02-03T06:10:23.158Z,60.36
2023-02-03T06:11:23.155Z,58.81
2023-02-03T06:12:23.185Z,59.39
2023-02-03T06:13:24.134Z,60.77
2023-02-03T06:14:23.128Z,61.10
2023-02-03T06:15:23.148Z,58.81
2023-02-03T06:16:23.174Z,58.03
2023-02-03T06:17:23.143Z,61.56
2023-02-03T06:18:23.136Z,60.68
2023-02-03T06:19:23.086Z,56.72
2023-02-03T06:20:23.077Z,58.84
2023-02-03T06:21:23.079Z,57.32
2023-02-03T06:22:23.057Z,57.97
2023-02-03T06:23:23.085Z,56.34
2023-02-03T06:24:23.047Z,59.23
2023-02-03T06:25:23.038Z,57.74
2023-02-03T06:26:23.032Z,59.51
2023-02-03T06:27:23.018Z,57.98
2023-02-03T06:28:23.038Z,59.38
2023-02-03T06:29:23.005Z,60.12
2023-02-03T06:30:22.996Z,60.01
2023-02-03T06:31:23.165Z,59.45
2023-02-03T06:32:22.987Z,60.82
2023-02-03T06:33:22.997Z,58.43
2023-02-03T06:34:22.966Z,57.97
2023-02-03T06:35:22.969Z,60.13
2023-02-03T06:36:22.954Z,61.72
2023-02-03T06:37:24.770Z,59.93
2023-02-03T06:38:23.971Z,59.13
2023-02-03T06:39:22.937Z,60.55
2023-02-03T06:40:22.916Z,61.64
2023-02-03T06:41:22.924Z,60.09
2023-02-03T06:42:22.909Z,57.32
2023-02-03T06:43:22.935Z,55.06
2023-02-03T06:44:22.882Z,62.33
2023-02-03T06:45:22.877Z,60.61
2023-02-03T06:46:22.925Z,60.39
2023-02-03T06:47:22.877Z,61.98
2023-02-03T06:48:22.885Z,58.17
2023-02-03T06:49:22.858Z,61.52
2023-02-03T06:50:22.842Z,57.04
2023-02-03T06:51:22.834Z,61.94
2023-02-03T06:52:22.831Z,62.30
2023-02-03T06:53:22.856Z,61.15
2023-02-03T06:54:22.813Z,59.04
2023-02-03T06:55:22.834Z,58.99
2023-02-03T06:56:22.792Z,63.74
2023-02-03T06:57:22.794Z,57.35
2023-02-03T06:58:22.811Z,58.58
2023-02-03T06:59:22.782Z,61.38
2023-02-03T07:00:22.772Z,60.99
2023-02-03T07:01:22.805Z,60.69
2023-02-03T07:02:22.760Z,57.06
2023-02-03T07:03:22.774Z,58.62
2023-02-03T07:04:22.748Z,62.26
2023-02-03T07:05:22.745Z,57.86
2023-02-03T07:06:22.723Z,57.26
2023-02-03T07:07:22.721Z,57.56
2023-02-03T07:08:22.741Z,62.48
2023-02-03T07:09:22.703Z,57.13
2023-02-03T07:10:22.690Z,60.10
2023-02-03T07:11:22.684Z,58.50
2023-02-03T07:12:22.673Z,57.93
2023-02-03T07:13:22.691Z,60.41
2023-02-03T07:14:22.659Z,59.14
2023-02-03T07:15:22.657Z,60.25
2023-02-03T07:16:22.730Z,60.72
2023-02-03T07:17:22.643Z,59.42
2023-02-03T07:18:45.924Z,59.53
2023-02-03T07:19:24.618Z,60.07
2023-02-03T07:20:22.639Z,55.60
2023-02-03T07:21:22.612Z,61.26
2023-02-03T07:22:22.609Z,60.96
2023-02-03T07:23:22.620Z,57.27
2023-02-03T07:24:22.592Z,59.11
2023-02-03T07:25:22.580Z,56.94
2023-02-03T07:26:22.566Z,58.59
2023-02-03T07:27:22.563Z,60.81
2023-02-03T07:28:22.588Z,57.51
2023-02-03T07:29:22.545Z,59.37
2023-02-03T07:30:22.568Z,57.68
2023-02-03T07:31:22.638Z,57.23
2023-02-03T07:32:22.529Z,58.92
2023-02-03T07:33:22.543Z,58.36
2023-02-03T07:34:22.547Z,56.95
2023-02-03T07:35:22.507Z,55.39
2023-02-03T07:36:22.494Z,59.11
2023-02-03T07:37:22.484Z,61.35
2023-02-03T07:38:22.475Z,59.26
2023-02-03T07:39:22.507Z,56.31
2023-02-03T07:40:22.496Z,56.10
2023-02-03T07:41:22.452Z,57.84
2023-02-03T07:42:22.444Z,57.71
2023-02-03T07:43:22.438Z,61.99
2023-02-03T07:44:22.462Z,58.17
2023-02-03T07:45:22.434Z,58.70
2023-02-03T07:46:22.421Z,57.43
2023-02-03T07:47:22.404Z,58.92
2023-02-03T07:48:22.398Z,57.72
2023-02-03T07:49:22.423Z,60.14
2023-02-03T07:50:22.380Z,60.83
2023-02-03T07:51:22.372Z,59.99
2023-02-03T07:52:22.377Z,58.80
2023-02-03T07:53:22.353Z,62.45
2023-02-03T07:54:22.373Z,58.46
2023-02-03T07:55:22.347Z,60.56
2023-02-03T07:56:22.345Z,60.24
2023-02-03T07:57:22.324Z,56.07
2023-02-03T07:58:22.315Z,56.69
2023-02-03T07:59:22.332Z,57.05
2023-02-03T08:00:22.302Z,58.01
2023-02-03T08:01:22.342Z,59.17
2023-02-03T08:02:22.305Z,57.75
2023-02-03T08:03:22.300Z,58.55
2023-02-03T08:04:22.302Z,56.32
2023-02-03T08:05:22.270Z,58.14
2023-02-03T08:06:22.256Z,57.72
2023-02-03T08:07:22.251Z,57.04
2023-02-03T08:08:22.249Z,57.84
2023-02-03T08:09:22.263Z,60.73
2023-02-03T08:10:22.236Z,56.57
2023-02-03T08:11:22.220Z,59.27
2023-02-03T08:12:22.219Z,59.76
2023-02-03T08:13:22.202Z,58.23
2023-02-03T08:14:22.241Z,55.11
2023-02-03T08:15:22.215Z,56.47
2023-02-03T08:16:22.208Z,60.78
2023-02-03T08:17:22.189Z,56.07
2023-02-03T08:18:22.165Z,59.98
2023-02-03T08:19:22.153Z,57.65
2023-02-03T08:20:22.183Z,56.23
2023-02-03T08:21:22.143Z,58.27
2023-02-03T08:22:22.138Z,57.96
2023-02-03T08:23:22.122Z,58.17
2023-02-03T08:24:22.122Z,54.19
2023-02-03T08:25:22.803Z,57.30
2023-02-03T08:26:23.111Z,58.04
2023-02-03T08:27:22.091Z,59.68
2023-02-03T08:28:22.085Z,60.07
2023-02-03T08:29:22.077Z,59.37
2023-02-03T08:30:22.093Z,54.35
2023-02-03T08:31:22.116Z,55.72
2023-02-03T08:32:22.132Z,59.43
2023-02-03T08:33:22.055Z,57.58
2023-02-03T08:34:22.039Z,57.44
2023-02-03T08:35:22.067Z,59.28
2023-02-03T08:36:22.024Z,58.89
2023-02-03T08:37:22.018Z,61.39
2023-02-03T08:38:22.024Z,57.01
2023-02-03T08:39:22.020Z,54.06
2023-02-03T08:40:22.032Z,54.16
2023-02-03T08:41:21.994Z,59.02
2023-02-03T08:42:21.979Z,58.23
2023-02-03T08:43:21.968Z,58.80
2023-02-03T08:44:21.971Z,54.09
2023-02-03T08:45:22.011Z,57.11
2023-02-03T08:46:21.944Z,58.21
2023-02-03T08:47:21.956Z,59.54
2023-02-03T08:48:21.940Z,57.90
2023-02-03T08:49:21.927Z,56.74
2023-02-03T08:50:21.952Z,60.26
2023-02-03T08:51:21.917Z,54.45
2023-02-03T08:52:21.909Z,52.44
2023-02-03T08:53:21.928Z,60.40
2023-02-03T08:54:21.891Z,56.30
2023-02-03T08:55:21.930Z,59.74
2023-02-03T08:56:21.877Z,56.50
2023-02-03T08:57:21.873Z,52.95
2023-02-03T08:58:21.868Z,56.77
2023-02-03T08:59:21.859Z,60.03
2023-02-03T09:00:21.877Z,57.14
2023-02-03T09:01:21.875Z,57.48
2023-02-03T09:02:21.835Z,58.56
2023-02-03T09:03:21.814Z,59.83
2023-02-03T09:04:21.835Z,54.38
2023-02-03T09:05:21.845Z,58.28
2023-02-03T09:06:23.462Z,56.10
2023-02-03T09:07:22.783Z,58.32
2023-02-03T09:08:21.780Z,51.75
2023-02-03T09:09:21.774Z,59.59
2023-02-03T09:10:21.803Z,58.71
2023-02-03T09:11:21.752Z,55.43
2023-02-03T09:12:21.752Z,57.76
2023-02-03T09:13:21.736Z,58.78
2023-02-03T09:14:21.728Z,56.67
2023-02-03T09:15:21.758Z,58.05
2023-02-03T09:16:21.780Z,57.81
2023-02-03T09:17:21.719Z,55.72
2023-02-03T09:18:21.700Z,56.29
2023-02-03T09:19:21.713Z,58.83
2023-02-03T09:20:21.774Z,58.49
2023-02-03T09:21:34.983Z,57.50
2023-02-03T09:22:23.670Z,57.01
2023-02-03T09:23:21.651Z,57.64
2023-02-03T09:24:21.642Z,59.01
2023-02-03T09:25:21.677Z,56.41
2023-02-03T09:26:21.625Z,57.91
2023-02-03T09:27:21.651Z,55.38
2023-02-03T09:28:21.637Z,58.59
2023-02-03T09:29:21.609Z,55.15
2023-02-03T09:30:21.626Z,58.05
2023-02-03T09:31:21.617Z,60.02
2023-02-03T09:32:21.590Z,59.14
2023-02-03T09:33:21.580Z,57.92
2023-02-03T09:34:21.576Z,54.45
2023-02-03T09:35:21.600Z,56.88
2023-02-03T09:36:21.559Z,55.73
2023-02-03T09:37:21.575Z,55.61
2023-02-03T09:38:21.547Z,59.10
2023-02-03T09:39:21.526Z,56.08
2023-02-03T09:40:21.547Z,60.69
2023-02-03T09:41:21.515Z,57.68
2023-02-03T09:42:21.514Z,55.22
2023-02-03T09:43:21.511Z,57.22
2023-02-03T09:44:21.491Z,57.03
2023-02-03T09:45:21.507Z,56.85
2023-02-03T09:46:22.511Z,57.66
2023-02-03T09:47:21.494Z,58.45
2023-02-03T09:48:21.464Z,57.39
2023-02-03T09:49:21.454Z,59.00
2023-02-03T09:50:21.473Z,59.17
2023-02-03T09:51:21.465Z,57.51
2023-02-03T09:52:21.431Z,58.20
2023-02-03T09:53:21.427Z,58.34
2023-02-03T09:54:21.416Z,58.02
2023-02-03T09:55:21.412Z,58.19
2023-02-03T09:56:21.424Z,57.30
2023-02-03T09:57:21.397Z,54.96
2023-02-03T09:58:21.444Z,59.12
2023-02-03T09:59:21.377Z,56.58
2023-02-03T10:00:21.365Z,57.79
2023-02-03T10:01:21.457Z,59.82
2023-02-03T10:02:21.413Z,57.88
2023-02-03T10:03:21.349Z,57.71
2023-02-03T10:04:21.380Z,57.50
2023-02-03T10:05:21.330Z,55.43
2023-02-03T10:06:21.373Z,55.99
2023-02-03T10:07:21.319Z,53.24
2023-02-03T10:08:21.308Z,59.46
2023-02-03T10:09:21.317Z,57.09
2023-02-03T10:10:21.298Z,60.63
2023-02-03T10:11:21.312Z,60.31
2023-02-03T10:12:21.279Z,58.70
2023-02-03T10:13:21.269Z,57.78
2023-02-03T10:14:21.258Z,59.05
2023-02-03T10:15:21.252Z,55.86
2023-02-03T10:16:21.271Z,56.38
2023-02-03T10:17:21.237Z,60.09
2023-02-03T10:18:21.234Z,57.68
2023-02-03T10:19:21.219Z,56.32
2023-02-03T10:20:21.214Z,57.28
2023-02-03T10:21:21.229Z,59.61
2023-02-03T10:22:21.193Z,54.47
2023-02-03T10:23:21.193Z,56.87
2023-02-03T10:24:21.180Z,59.04
2023-02-03T10:25:21.172Z,59.02
2023-02-03T10:26:21.191Z,57.11
2023-02-03T10:27:21.152Z,58.74
2023-02-03T10:28:21.174Z,59.73
2023-02-03T10:29:21.143Z,54.77
2023-02-03T10:30:21.131Z,60.19
2023-02-03T10:31:21.302Z,55.87
2023-02-03T10:32:21.124Z,57.53
2023-02-03T10:33:21.111Z,58.63
2023-02-03T10:34:21.128Z,59.66
2023-02-03T10:35:21.102Z,59.84
2023-02-03T10:36:21.110Z,57.06
2023-02-03T10:37:21.093Z,62.52
2023-02-03T10:38:21.068Z,59.60
2023-02-03T10:39:21.061Z,60.84
2023-02-03T10:40:21.164Z,59.50
2023-02-03T10:41:21.147Z,58.86
2023-02-03T10:42:21.158Z,57.98
2023-02-03T10:43:21.037Z,58.67
2023-02-03T10:44:21.028Z,61.28
2023-02-03T10:45:21.017Z,57.99
2023-02-03T10:46:21.139Z,60.60
2023-02-03T10:47:20.999Z,60.92
2023-02-03T10:48:20.994Z,60.56
2023-02-03T10:49:20.984Z,59.23
2023-02-03T10:50:21.014Z,56.80
2023-02-03T10:51:20.997Z,57.62
2023-02-03T10:52:20.972Z,61.02
2023-02-03T10:53:20.952Z,59.22
2023-02-03T10:54:20.944Z,61.67
2023-02-03T10:55:20.942Z,57.86
2023-02-03T10:56:20.925Z,56.92
2023-02-03T10:57:20.939Z,59.36
2023-02-03T10:58:20.910Z,56.49
2023-02-03T10:59:20.900Z,58.82
2023-02-03T11:00:22.456Z,54.59
2023-02-03T11:01:21.913Z,56.30
2023-02-03T11:02:20.936Z,58.60
2023-02-03T11:03:20.881Z,58.33
2023-02-03T11:04:20.863Z,59.54
2023-02-03T11:05:20.860Z,58.27
2023-02-03T11:06:20.848Z,56.11
2023-02-03T11:07:20.861Z,56.47
2023-02-03T11:08:20.826Z,57.36
2023-02-03T11:09:20.823Z,59.06
2023-02-03T11:10:20.814Z,57.73
2023-02-03T11:11:20.894Z,57.92
2023-02-03T11:12:20.849Z,57.64
2023-02-03T11:13:20.787Z,58.96
2023-02-03T11:14:20.782Z,57.90
2023-02-03T11:15:20.774Z,61.01
2023-02-03T11:16:20.928Z,57.32
2023-02-03T11:17:20.785Z,58.53
2023-02-03T11:18:20.758Z,58.26
2023-02-03T11:19:20.769Z,56.06
2023-02-03T11:20:20.738Z,57.43
2023-02-03T11:21:20.732Z,58.46
2023-02-03T11:22:20.743Z,58.91
2023-02-03T11:23:22.717Z,60.36
2023-02-03T11:24:20.709Z,59.97
2023-02-03T11:25:20.690Z,57.62
2023-02-03T11:26:20.686Z,58.56
2023-02-03T11:27:20.707Z,56.96
2023-02-03T11:28:20.702Z,58.26
2023-02-03T11:29:23.448Z,59.58
2023-02-03T11:30:20.659Z,60.32
2023-02-03T11:31:20.704Z,57.80
2023-02-03T11:32:20.670Z,59.92
2023-02-03T11:33:20.628Z,59.66
2023-02-03T11:34:20.625Z,59.69
2023-02-03T11:35:22.841Z,59.36
2023-02-03T11:36:20.614Z,57.89
2023-02-03T11:37:21.642Z,57.25
2023-02-03T11:38:20.596Z,58.95
2023-02-03T11:39:20.602Z,57.38
2023-02-03T11:40:20.584Z,56.75
2023-02-03T11:41:23.028Z,58.80
2023-02-03T11:42:20.595Z,58.20
2023-02-03T11:43:20.577Z,57.70
2023-02-03T11:44:20.551Z,60.05
2023-02-03T11:45:20.542Z,59.81
2023-02-03T11:46:20.565Z,60.75
2023-02-03T11:47:22.781Z,57.69
2023-02-03T11:48:20.549Z,59.48
2023-02-03T11:49:20.512Z,61.00
2023-02-03T11:50:20.502Z,57.80
2023-02-03T11:51:20.497Z,59.10
2023-02-03T11:52:20.491Z,59.83
2023-02-03T11:53:22.934Z,60.27
2023-02-03T11:54:20.476Z,60.87
2023-02-03T11:55:20.466Z,60.85
2023-02-03T11:56:20.466Z,60.35
2023-02-03T11:57:20.451Z,60.97
2023-02-03T11:58:20.471Z,59.29
2023-02-03T11:59:21.254Z,61.28
2023-02-03T12:00:21.428Z,61.59
2023-02-03T12:01:20.440Z,61.61
2023-02-03T12:02:20.416Z,59.84
2023-02-03T12:03:20.431Z,57.73
2023-02-03T12:04:20.423Z,59.44
2023-02-03T12:05:20.397Z,59.14
2023-02-03T12:06:20.380Z,56.25
2023-02-03T12:07:20.385Z,59.23
2023-02-03T12:08:20.388Z,58.99
2023-02-03T12:09:20.361Z,58.89
2023-02-03T12:10:20.352Z,59.54
2023-02-03T12:11:21.905Z,62.69
2023-02-03T12:12:20.334Z,60.59
2023-02-03T12:13:20.355Z,62.31
2023-02-03T12:14:20.321Z,59.22
2023-02-03T12:15:20.309Z,62.65
2023-02-03T12:16:20.409Z,57.64
2023-02-03T12:17:22.252Z,59.57
2023-02-03T12:18:20.329Z,59.66
2023-02-03T12:19:20.287Z,56.56
2023-02-03T12:20:20.279Z,60.00
2023-02-03T12:21:20.261Z,59.19
2023-02-03T12:22:20.256Z,62.05
2023-02-03T12:23:21.300Z,61.61
2023-02-03T12:24:20.240Z,59.87
2023-02-03T12:25:20.225Z,58.08
2023-02-03T12:26:20.220Z,61.26
2023-02-03T12:27:20.211Z,61.71
2023-02-03T12:28:32.584Z,58.92
2023-02-03T12:29:22.201Z,58.21
2023-02-03T12:30:20.186Z,58.01
2023-02-03T12:31:20.264Z,58.31
2023-02-03T12:32:20.183Z,59.35
2023-02-03T12:33:20.197Z,62.14
2023-02-03T12:34:20.163Z,59.76
2023-02-03T12:35:20.153Z,60.07
2023-02-03T12:36:20.158Z,59.53
2023-02-03T12:37:20.131Z,58.78
2023-02-03T12:38:20.120Z,59.56
2023-02-03T12:39:20.139Z,59.70
2023-02-03T12:40:20.121Z,59.94
2023-02-03T12:41:20.120Z,61.61
2023-02-03T12:42:20.094Z,62.45
2023-02-03T12:43:20.089Z,60.15
2023-02-03T12:44:20.125Z,63.16
2023-02-03T12:45:20.076Z,61.41
2023-02-03T12:46:20.135Z,61.07
2023-02-03T12:47:20.055Z,59.57
2023-02-03T12:48:20.045Z,58.45
2023-02-03T12:49:20.059Z,59.97
2023-02-03T12:50:20.031Z,60.02
2023-02-03T12:51:20.023Z,60.67
2023-02-03T12:52:20.012Z,60.39